Time;durP1;ratioP1;P1;durP2;ratioP2;P2;SDS_P1;SDS_P2;PMS_P1;PMS_P2;Temp;Humidity;BMP_temperature;BMP_pressure;BME280_temperature;BME280_humidity;BME280_pressure;Samples;Min_cycle;Max_cycle;Signal;HPM_P1;HPM_P2
2021/04/08 00:00:22;;;;;;;3.26;1.09;;;;;;;2.79;59.02;100068.06;2037372;77;20854;-67
2021/04/08 00:03:23;;;;;;;1.23;0.80;;;;;;;2.78;59.33;100070.56;2041937;79;20349;-67
2021/04/08 00:06:25;;;;;;;1.89;1.33;;;;;;;2.78;59.11;100062.88;2041585;79;20303;-67
2021/04/08 00:09:27;;;;;;;2.67;1.19;;;;;;;2.75;59.33;100065.34;2041784;79;20295;-67
2021/04/08 00:12:28;;;;;;;1.10;0.79;;;;;;;2.74;59.22;100067.03;2042185;79;20355;-67
2021/04/08 00:15:30;;;;;;;1.38;0.90;;;;;;;2.71;59.37;100065.22;2040425;77;20545;-67
2021/04/08 00:18:31;;;;;;;2.36;1.67;;;;;;;2.71;59.41;100064.34;2036712;79;20312;-67
2021/04/08 00:21:34;;;;;;;3.04;1.00;;;;;;;2.67;59.69;100067.59;2035191;79;20336;-67
2021/04/08 00:24:35;;;;;;;3.26;0.90;;;;;;;2.61;60.10;100073.38;2035218;79;20384;-67
2021/04/08 00:27:37;;;;;;;2.97;1.00;;;;;;;2.56;60.38;100072.31;2035448;79;20309;-67
2021/04/08 00:30:45;;;;;;;2.39;1.38;;;;;;;2.57;60.14;100073.19;2032974;76;20362;-67
2021/04/08 00:33:47;;;;;;;3.31;1.09;;;;;;;2.57;60.09;100076.63;2033232;79;20313;-67
2021/04/08 00:36:48;;;;;;;2.95;1.54;;;;;;;2.52;60.10;100064.47;2033779;79;20354;-67
2021/04/08 00:39:50;;;;;;;4.01;1.24;;;;;;;2.51;60.08;100070.38;2035348;79;20330;-67
2021/04/08 00:42:51;;;;;;;3.55;1.84;;;;;;;2.49;60.31;100065.19;2035475;79;20316;-67
2021/04/08 00:45:53;;;;;;;4.99;1.33;;;;;;;2.48;60.54;100075.38;2034242;76;22245;-67
2021/04/08 00:48:56;;;;;;;1.98;1.36;;;;;;;2.45;60.72;100070.16;2036147;79;20320;-67
2021/04/08 00:51:58;;;;;;;3.97;1.49;;;;;;;2.43;60.92;100075.22;2035089;79;20334;-67
2021/04/08 00:54:59;;;;;;;2.10;1.21;;;;;;;2.41;61.31;100076.84;2037086;79;20377;-67
2021/04/08 00:58:04;;;;;;;3.42;1.20;;;;;;;2.34;62.33;100078.31;2037330;79;20313;-67
2021/04/08 01:01:06;;;;;;;3.47;1.11;;;;;;;2.30;62.28;100070.41;2036878;76;25453;-67
2021/04/08 01:04:08;;;;;;;1.74;1.49;;;;;;;2.29;61.98;100074.66;2037219;79;20356;-67
2021/04/08 01:07:10;;;;;;;1.38;1.05;;;;;;;2.26;61.91;100073.69;2036918;79;20308;-67
2021/04/08 01:10:13;;;;;;;1.79;1.42;;;;;;;2.24;62.46;100083.00;2037522;79;20760;-66
2021/04/08 01:13:17;;;;;;;1.49;1.01;;;;;;;2.18;63.29;100091.31;2037423;79;20981;-66
2021/04/08 01:16:29;;;;;;;2.08;1.41;;;;;;;2.15;63.89;100085.19;2034105;76;21146;-66
2021/04/08 01:20:14;;;;;;;2.38;1.20;;;;;;;2.05;64.75;100095.06;2032808;79;20472;-66
2021/04/08 01:23:27;;;;;;;1.34;1.10;;;;;;;2.03;64.45;100090.69;2031683;79;20317;-67
2021/04/08 01:26:47;;;;;;;3.19;1.21;;;;;;;1.98;64.62;100095.66;2032954;79;20355;-67
2021/04/08 01:29:55;;;;;;;2.55;1.23;;;;;;;1.98;64.43;100093.09;2031396;79;20929;-66
2021/04/08 01:33:00;;;;;;;2.39;1.29;;;;;;;1.97;64.77;100093.88;2036634;77;20318;-66
2021/04/08 01:36:06;;;;;;;2.90;1.30;;;;;;;1.92;65.53;100100.50;2036889;79;20316;-67
2021/04/08 01:39:15;;;;;;;2.06;1.21;;;;;;;1.92;65.48;100105.63;2037638;79;20980;-67
2021/04/08 01:42:19;;;;;;;3.28;1.57;;;;;;;1.88;65.46;100110.56;2037581;79;20301;-67
2021/04/08 01:45:22;;;;;;;3.69;1.40;;;;;;;1.84;65.47;100107.00;2036140;76;78162;-66
2021/04/08 01:48:25;;;;;;;1.40;1.10;;;;;;;1.79;65.75;100111.91;2036978;79;20316;-67
2021/04/08 01:51:29;;;;;;;2.21;1.24;;;;;;;1.79;65.75;100109.34;2036907;79;20326;-66
2021/04/08 01:54:33;;;;;;;2.96;1.33;;;;;;;1.78;65.69;100112.72;2037061;79;21159;-67
2021/04/08 01:57:37;;;;;;;1.88;1.27;;;;;;;1.76;65.82;100108.34;2036919;79;20317;-67
2021/04/08 02:00:39;;;;;;;1.40;1.30;;;;;;;1.74;66.14;100117.66;2035714;76;20394;-66
2021/04/08 02:03:42;;;;;;;2.47;1.41;;;;;;;1.73;66.52;100118.47;2038478;79;20373;-66
2021/04/08 02:06:46;;;;;;;1.89;1.31;;;;;;;1.70;66.75;100121.78;2038879;79;20308;-66
2021/04/08 02:09:49;;;;;;;3.24;1.52;;;;;;;1.67;66.37;100125.88;2038236;79;20808;-67
2021/04/08 02:12:53;;;;;;;2.31;1.49;;;;;;;1.66;66.52;100126.69;2038347;79;20431;-66
2021/04/08 02:15:57;;;;;;;2.54;1.42;;;;;;;1.62;66.73;100132.50;2037287;77;20325;-66
2021/04/08 02:19:01;;;;;;;3.28;1.23;;;;;;;1.62;67.08;100129.94;2039365;79;20336;-66
2021/04/08 02:22:04;;;;;;;2.28;1.66;;;;;;;1.55;67.41;100126.22;2038058;79;20309;-66
2021/04/08 02:25:08;;;;;;;4.97;1.59;;;;;;;1.48;68.00;100124.22;2038785;79;20309;-67
2021/04/08 02:28:10;;;;;;;2.14;1.71;;;;;;;1.49;67.84;100131.09;2037671;79;20518;-66
2021/04/08 02:31:12;;;;;;;2.92;1.65;;;;;;;1.50;67.29;100136.28;2037528;77;21364;-66
2021/04/08 02:34:15;;;;;;;3.22;1.33;;;;;;;1.51;67.39;100138.03;2038899;79;20345;-66
2021/04/08 02:37:17;;;;;;;3.01;1.58;;;;;;;1.46;67.52;100131.84;2038481;79;20725;-66
2021/04/08 02:40:20;;;;;;;4.36;1.89;;;;;;;1.51;66.59;100129.47;2038690;79;20322;-67
2021/04/08 02:43:22;;;;;;;3.09;1.54;;;;;;;1.55;66.23;100131.34;2038655;79;20547;-66
2021/04/08 02:46:23;;;;;;;3.53;1.45;;;;;;;1.57;66.23;100134.84;2039357;76;24191;-67
2021/04/08 02:49:25;;;;;;;3.59;1.54;;;;;;;1.56;66.23;100132.22;2039268;79;20327;-67
2021/04/08 02:52:37;;;;;;;2.61;1.33;;;;;;;1.47;67.51;100137.81;2039150;79;20354;-67
2021/04/08 02:55:46;;;;;;;2.58;1.31;;;;;;;1.41;67.75;100142.66;2039494;79;20313;-67
2021/04/08 02:58:50;;;;;;;4.55;1.75;;;;;;;1.37;67.66;100143.34;2039398;79;20324;-67
2021/04/08 03:02:03;;;;;;;2.94;1.38;;;;;;;1.36;67.46;100139.03;2035137;77;20393;-66
2021/04/08 03:05:08;;;;;;;2.47;1.52;;;;;;;1.37;67.46;100140.78;2032460;79;20339;-66
2021/04/08 03:08:14;;;;;;;1.48;1.38;;;;;;;1.34;67.68;100138.09;2032911;79;20480;-66
2021/04/08 03:11:34;;;;;;;2.88;1.49;;;;;;;1.31;67.75;100146.50;2032931;79;20807;-66
2021/04/08 03:14:43;;;;;;;1.30;1.20;;;;;;;1.26;68.50;100147.09;2032130;79;20499;-66
2021/04/08 03:17:48;;;;;;;2.81;1.55;;;;;;;1.19;68.37;100148.50;2036140;76;20367;-66
2021/04/08 03:20:52;;;;;;;2.34;1.70;;;;;;;1.16;68.31;100153.50;2037295;79;20360;-66
2021/04/08 03:23:57;;;;;;;1.48;1.38;;;;;;;1.09;68.39;100154.91;2037617;79;20447;-66
2021/04/08 03:27:00;;;;;;;2.01;1.40;;;;;;;1.09;68.37;100160.03;2037651;79;20312;-66
2021/04/08 03:30:04;;;;;;;2.88;1.30;;;;;;;1.08;68.52;100153.16;2037432;79;20326;-66
2021/04/08 03:33:12;;;;;;;1.86;1.54;;;;;;;1.08;69.13;100157.41;2037811;76;20899;-66
2021/04/08 03:36:15;;;;;;;2.30;1.40;;;;;;;1.03;69.67;100157.16;2037741;79;20706;-66
2021/04/08 03:39:17;;;;;;;3.49;1.48;;;;;;;0.99;70.01;100154.41;2037916;79;20308;-66
2021/04/08 03:42:19;;;;;;;3.06;1.63;;;;;;;0.95;69.65;100150.84;2038010;79;20348;-66
2021/04/08 03:45:21;;;;;;;2.35;1.48;;;;;;;0.90;69.90;100153.19;2036657;76;20356;-66
2021/04/08 03:48:23;;;;;;;3.26;1.71;;;;;;;0.88;70.09;100149.66;2040901;79;20289;-66
2021/04/08 03:51:27;;;;;;;4.24;1.67;;;;;;;0.88;69.83;100151.34;2037757;79;20854;-66
2021/04/08 03:54:30;;;;;;;4.69;2.61;;;;;;;0.86;69.71;100148.72;2036936;79;20467;-67
2021/04/08 03:57:34;;;;;;;3.41;1.49;;;;;;;0.79;69.99;100149.25;2038123;79;20362;-66
2021/04/08 04:00:39;;;;;;;3.55;1.64;;;;;;;0.76;69.80;100148.25;2037058;76;39902;-66
2021/04/08 04:03:42;;;;;;;4.81;2.14;;;;;;;0.75;69.90;100152.47;2037369;79;20350;-66
2021/04/08 04:06:50;;;;;;;3.20;1.90;;;;;;;0.71;69.83;100158.22;2037786;79;20389;-66
2021/04/08 04:09:52;;;;;;;2.44;1.54;;;;;;;0.70;69.94;100161.59;2037650;79;20333;-66
2021/04/08 04:12:55;;;;;;;2.83;1.67;;;;;;;0.69;70.00;100162.38;2038077;79;20326;-66
2021/04/08 04:15:58;;;;;;;2.01;1.59;;;;;;;0.64;70.13;100160.44;2036921;76;20337;-66
2021/04/08 04:18:59;;;;;;;3.50;1.50;;;;;;;0.60;70.06;100156.88;2042874;79;20426;-67
2021/04/08 04:22:01;;;;;;;3.46;1.84;;;;;;;0.55;70.15;100154.09;2042965;79;20341;-66
2021/04/08 04:25:05;;;;;;;3.17;1.54;;;;;;;0.48;70.60;100158.81;2042269;79;20436;-67
2021/04/08 04:28:07;;;;;;;7.70;2.11;;;;;;;0.40;70.59;100155.03;2043132;79;20408;-66
2021/04/08 04:31:09;;;;;;;2.31;1.42;;;;;;;0.36;70.52;100161.69;2041759;76;20447;-66
2021/04/08 04:34:10;;;;;;;3.10;1.40;;;;;;;0.30;70.45;100166.47;2042905;79;20372;-66
2021/04/08 04:37:12;;;;;;;1.77;1.50;;;;;;;0.26;70.38;100173.13;2043602;79;20336;-64
2021/04/08 04:40:14;;;;;;;2.25;1.35;;;;;;;0.24;70.71;100169.63;2045933;79;20368;-63
2021/04/08 04:43:16;;;;;;;4.74;1.65;;;;;;;0.20;71.01;100175.38;2042670;79;20307;-63
2021/04/08 04:46:18;;;;;;;4.00;1.44;;;;;;;0.16;71.17;100182.78;2040269;77;21131;-64
2021/04/08 04:49:25;;;;;;;2.24;1.58;;;;;;;0.15;71.18;100184.47;2037298;79;20301;-63
2021/04/08 04:52:26;;;;;;;2.50;1.49;;;;;;;0.10;70.89;100180.81;2037826;79;20853;-64
2021/04/08 04:55:28;;;;;;;2.55;1.44;;;;;;;0.03;70.91;100183.88;2037073;79;21065;-64
2021/04/08 04:58:30;;;;;;;2.25;1.74;;;;;;;-0.06;70.74;100199.59;2037954;79;21208;-66
2021/04/08 05:01:31;;;;;;;2.64;2.10;;;;;;;-0.08;70.97;100195.22;2041536;76;24567;-66
2021/04/08 05:04:33;;;;;;;2.81;1.80;;;;;;;-0.14;71.15;100193.22;2043058;79;20834;-66
2021/04/08 05:07:34;;;;;;;4.24;2.06;;;;;;;-0.22;71.41;100193.63;2042150;79;20419;-66
2021/04/08 05:10:36;;;;;;;3.36;1.60;;;;;;;-0.26;71.57;100207.91;2042155;79;20308;-63
2021/04/08 05:13:38;;;;;;;3.53;1.86;;;;;;;-0.27;71.26;100200.19;2040465;79;20337;-64
2021/04/08 05:16:41;;;;;;;3.11;1.75;;;;;;;-0.29;71.14;100210.31;2036375;76;20360;-63
2021/04/08 05:19:42;;;;;;;2.33;1.54;;;;;;;-0.25;71.55;100206.22;2035407;79;21330;-63
2021/04/08 05:22:44;;;;;;;2.90;1.66;;;;;;;-0.25;71.98;100211.34;2036077;79;20719;-63
2021/04/08 05:25:46;;;;;;;2.46;1.60;;;;;;;-0.31;71.71;100200.03;2035083;79;20297;-63
2021/04/08 05:28:47;;;;;;;2.65;1.85;;;;;;;-0.31;71.89;100207.69;2036114;79;20367;-64
2021/04/08 05:31:49;;;;;;;4.78;1.73;;;;;;;-0.31;71.74;100210.22;2037849;77;20307;-63
2021/04/08 05:34:51;;;;;;;2.85;1.56;;;;;;;-0.32;71.99;100212.72;2040414;79;20296;-63
2021/04/08 05:37:53;;;;;;;3.71;2.24;;;;;;;-0.32;72.09;100207.59;2039766;79;20339;-63
2021/04/08 05:40:54;;;;;;;2.63;1.58;;;;;;;-0.31;72.01;100207.69;2040749;79;20328;-63
2021/04/08 05:43:56;;;;;;;3.09;1.94;;;;;;;-0.29;71.91;100212.00;2039964;79;20955;-64
2021/04/08 05:46:58;;;;;;;4.97;2.05;;;;;;;-0.26;71.55;100224.91;2035233;76;51639;-63
2021/04/08 05:50:00;;;;;;;1.79;1.51;;;;;;;-0.12;71.27;100218.84;2034947;79;20936;-63
2021/04/08 05:53:02;;;;;;;2.56;1.86;;;;;;;-0.02;71.58;100227.03;2034179;79;20324;-63
2021/04/08 05:56:04;;;;;;;3.16;1.69;;;;;;;0.02;72.09;100217.88;2034323;79;20305;-63
2021/04/08 05:59:06;;;;;;;3.92;1.79;;;;;;;0.10;71.93;100224.22;2034715;79;21173;-64
2021/04/08 06:02:07;;;;;;;2.91;2.03;;;;;;;0.23;71.76;100225.72;2034108;77;20329;-64
2021/04/08 06:05:10;;;;;;;3.91;1.81;;;;;;;0.39;71.66;100223.13;2034951;79;20426;-63
2021/04/08 06:08:11;;;;;;;2.59;1.73;;;;;;;0.69;71.23;100227.97;2034519;79;20304;-64
2021/04/08 06:11:13;;;;;;;4.18;1.86;;;;;;;1.19;69.18;100231.22;2035096;79;20793;-63
2021/04/08 06:14:15;;;;;;;4.16;1.50;;;;;;;1.61;68.93;100228.84;2038174;79;20338;-63
2021/04/08 06:17:17;;;;;;;5.07;2.09;;;;;;;1.98;68.38;100235.63;2039654;77;24366;-64
2021/04/08 06:20:19;;;;;;;4.18;1.77;;;;;;;2.42;67.19;100235.81;2039855;79;20757;-64
2021/04/08 06:23:34;;;;;;;5.11;2.34;;;;;;;2.92;65.54;100230.97;2039315;79;20418;-64
2021/04/08 06:26:36;;;;;;;3.91;1.86;;;;;;;3.50;63.00;100236.66;2040256;79;20451;-64
2021/04/08 06:29:38;;;;;;;3.64;2.16;;;;;;;4.07;59.68;100244.72;2039979;79;20320;-64
2021/04/08 06:32:39;;;;;;;7.68;2.69;;;;;;;4.74;58.40;100229.00;2034646;77;20362;-64
2021/04/08 06:35:41;;;;;;;2.51;1.84;;;;;;;5.18;56.60;100237.22;2039402;79;20350;-64
2021/04/08 06:38:43;;;;;;;3.17;2.08;;;;;;;5.04;55.87;100234.25;2040289;79;20421;-64
2021/04/08 06:41:45;;;;;;;4.31;2.60;;;;;;;5.49;52.92;100235.56;2039880;79;20335;-64
2021/04/08 06:44:50;;;;;;;5.97;2.28;;;;;;;5.99;51.69;100237.06;2038958;79;20333;-66
2021/04/08 06:47:51;;;;;;;5.69;2.04;;;;;;;6.35;50.66;100238.03;2038321;77;21556;-64
2021/04/08 06:50:54;;;;;;;3.70;2.10;;;;;;;6.50;50.97;100231.53;2039351;79;20440;-66
2021/04/08 06:53:55;;;;;;;3.76;2.40;;;;;;;6.68;50.62;100238.88;2039542;79;20536;-67
2021/04/08 06:56:58;;;;;;;4.13;2.58;;;;;;;6.93;48.97;100238.59;2039111;79;20639;-66
2021/04/08 07:00:01;;;;;;;3.17;2.67;;;;;;;7.05;48.35;100235.44;2039073;79;20296;-67
2021/04/08 07:03:04;;;;;;;5.84;1.99;;;;;;;7.20;47.70;100234.09;2036697;77;21928;-64
2021/04/08 07:06:06;;;;;;;4.21;2.21;;;;;;;7.06;47.29;100235.50;2033695;79;20244;-69
2021/04/08 07:09:10;;;;;;;2.63;1.92;;;;;;;7.29;45.45;100233.41;2034524;79;20210;-64
2021/04/08 07:12:14;;;;;;;5.81;2.00;;;;;;;7.44;43.74;100235.47;2035011;79;20177;-64
2021/04/08 07:15:18;;;;;;;2.64;1.81;;;;;;;7.24;42.10;100235.91;2033417;77;20989;-65
2021/04/08 07:18:21;;;;;;;5.31;2.50;;;;;;;7.24;43.48;100235.91;2035399;79;20210;-65
2021/04/08 07:21:28;;;;;;;1.86;1.15;;;;;;;7.13;42.36;100245.09;2035381;79;20826;-65
2021/04/08 07:24:41;;;;;;;3.24;1.21;;;;;;;7.12;41.48;100240.78;2036226;79;21026;-65
2021/04/08 07:27:43;;;;;;;4.22;1.71;;;;;;;7.12;41.36;100245.94;2036494;79;20585;-65
2021/04/08 07:30:44;;;;;;;6.11;1.60;;;;;;;7.14;42.93;100249.44;2037414;76;20173;-66
2021/04/08 07:33:46;;;;;;;2.64;1.34;;;;;;;7.08;41.55;100251.88;2042008;79;20803;-66
2021/04/08 07:36:54;;;;;;;2.54;1.31;;;;;;;6.99;41.81;100254.22;2042305;79;20337;-65
2021/04/08 07:39:58;;;;;;;3.58;1.29;;;;;;;6.93;40.75;100260.13;2042773;79;20667;-66
2021/04/08 07:43:20;;;;;;;2.80;1.42;;;;;;;6.77;41.26;100260.59;2045743;79;20253;-66
2021/04/08 07:46:51;;;;;;;1.80;1.50;;;;;;;6.72;40.87;100256.16;2041188;79;20369;-66
2021/04/08 07:49:56;;;;;;;2.50;1.24;;;;;;;6.57;42.08;100267.84;2038991;79;20327;-66
2021/04/08 07:52:58;;;;;;;2.90;1.36;;;;;;;6.61;43.23;100269.66;2041957;79;20372;-66
2021/04/08 07:56:01;;;;;;;3.97;1.25;;;;;;;6.66;42.27;100268.09;2041952;79;20373;-66
2021/04/08 07:59:19;;;;;;;2.70;1.41;;;;;;;6.59;41.99;100271.31;2045975;79;20323;-66
2021/04/08 08:02:26;;;;;;;3.69;1.30;;;;;;;6.81;42.84;100267.56;2041696;77;22224;-67
2021/04/08 08:05:36;;;;;;;2.13;1.11;;;;;;;6.84;41.56;100264.22;2041958;79;20192;-67
2021/04/08 08:08:44;;;;;;;2.94;1.51;;;;;;;7.07;41.01;100275.09;2042660;79;20337;-67
2021/04/08 08:11:48;;;;;;;3.14;1.16;;;;;;;7.14;40.92;100272.69;2041905;79;20289;-67
2021/04/08 08:14:51;;;;;;;2.86;1.39;;;;;;;7.11;39.54;100266.56;2042380;79;20204;-66
2021/04/08 08:17:55;;;;;;;2.33;1.13;;;;;;;7.12;39.38;100268.31;2043998;76;20809;-66
2021/04/08 08:21:20;;;;;;;3.29;1.20;;;;;;;7.30;39.87;100276.50;2039228;79;20896;-67
2021/04/08 08:24:21;;;;;;;2.01;1.38;;;;;;;7.48;38.97;100265.69;2041447;79;21175;-68
2021/04/08 08:27:40;;;;;;;4.30;1.20;;;;;;;7.42;37.87;100275.91;2042232;79;21139;-68
2021/04/08 08:30:56;;;;;;;1.76;0.99;;;;;;;7.48;38.63;100265.69;2041132;77;20245;-68
2021/04/08 08:33:58;;;;;;;2.60;0.90;;;;;;;7.57;38.91;100271.97;2042229;79;20210;-66
2021/04/08 08:37:01;;;;;;;2.33;1.04;;;;;;;7.66;37.72;100263.50;2042037;79;20319;-67
2021/04/08 08:40:04;;;;;;;3.53;1.16;;;;;;;7.63;38.66;100265.16;2042471;79;20724;-72
2021/04/08 08:43:06;;;;;;;2.67;1.11;;;;;;;7.65;38.31;100266.94;2042017;79;20621;-74
2021/04/08 08:46:08;;;;;;;4.93;1.55;;;;;;;7.80;38.10;100275.03;2039791;77;21092;-71
2021/04/08 08:49:12;;;;;;;3.00;1.15;;;;;;;7.90;37.09;100276.09;2042181;79;20636;-75
2021/04/08 08:52:21;;;;;;;2.24;1.01;;;;;;;7.77;35.96;100269.78;2042261;79;20180;-80
2021/04/08 08:55:23;;;;;;;2.89;1.16;;;;;;;7.95;37.40;100269.28;2041591;79;20180;-74
2021/04/08 08:58:26;;;;;;;2.59;1.73;;;;;;;8.03;36.94;100262.53;2041842;79;20184;-75
2021/04/08 09:01:28;;;;;;;2.96;1.04;;;;;;;8.05;37.00;100260.84;2039549;77;22446;-75
2021/04/08 09:04:30;;;;;;;2.66;1.26;;;;;;;8.28;37.66;100271.66;2039531;79;20274;-76
2021/04/08 09:07:32;;;;;;;4.97;1.10;;;;;;;8.34;37.37;100264.06;2040135;79;20164;-75
2021/04/08 09:10:38;;;;;;;5.15;1.20;;;;;;;8.47;36.29;100266.03;2039602;79;20193;-76
2021/04/08 09:13:40;;;;;;;3.45;1.05;;;;;;;8.65;35.64;100270.66;2040536;79;20219;-76
2021/04/08 09:16:45;;;;;;;3.55;1.25;;;;;;;8.95;36.39;100269.41;2039509;76;21442;-76
2021/04/08 09:19:56;;;;;;;1.98;1.27;;;;;;;9.49;35.77;100269.38;2041224;79;20310;-77
2021/04/08 09:23:04;;;;;;;5.00;1.05;;;;;;;9.80;34.81;100264.59;2043317;79;20180;-76
2021/04/08 09:26:06;;;;;;;2.63;1.10;;;;;;;10.11;34.28;100263.25;2039773;79;20667;-76
2021/04/08 09:29:09;;;;;;;1.81;0.80;;;;;;;10.23;33.32;100261.72;2040069;79;20339;-76
2021/04/08 09:32:20;;;;;;;2.46;1.15;;;;;;;10.31;34.02;100256.59;2038930;77;20219;-76
2021/04/08 09:35:28;;;;;;;1.42;0.84;;;;;;;10.03;33.61;100259.69;2039463;79;20189;-76
2021/04/08 09:38:29;;;;;;;2.69;0.99;;;;;;;9.73;33.46;100253.28;2040695;79;20202;-76
2021/04/08 09:41:51;;;;;;;2.14;0.89;;;;;;;9.75;33.95;100253.31;2041024;79;21028;-76
2021/04/08 09:44:53;;;;;;;3.81;1.15;;;;;;;9.66;32.51;100254.91;2040439;79;20218;-76
2021/04/08 09:48:08;;;;;;;1.55;0.99;;;;;;;9.63;34.80;100254.88;2034164;77;42123;-76
2021/04/08 09:51:09;;;;;;;3.16;1.14;;;;;;;9.99;34.17;100251.88;2035141;79;20185;-76
2021/04/08 09:54:16;;;;;;;4.19;1.00;;;;;;;10.36;32.94;100251.44;2035361;79;21334;-76
2021/04/08 09:57:33;;;;;;;2.10;0.79;;;;;;;10.42;33.28;100252.38;2036553;79;20467;-76
2021/04/08 10:00:35;;;;;;;2.14;1.50;;;;;;;10.45;33.44;100241.16;2036340;76;21559;-74
2021/04/08 10:03:40;;;;;;;1.96;1.00;;;;;;;10.12;33.10;100245.09;2041796;79;20239;-76
2021/04/08 10:06:42;;;;;;;2.72;0.96;;;;;;;10.16;33.69;100239.09;2041579;79;20574;-76
2021/04/08 10:09:54;;;;;;;2.72;1.35;;;;;;;10.20;31.76;100240.84;2042167;79;20761;-76
2021/04/08 10:12:55;;;;;;;3.97;1.00;;;;;;;9.99;31.72;100231.13;2041192;79;20833;-76
2021/04/08 10:16:07;;;;;;;4.65;1.02;;;;;;;9.91;31.70;100239.69;2038686;77;25065;-76
2021/04/08 10:19:09;;;;;;;1.26;0.76;;;;;;;9.92;32.58;100231.03;2035763;79;20665;-75
2021/04/08 10:22:11;;;;;;;2.92;1.10;;;;;;;9.91;32.27;100224.13;2036501;79;20189;-74
2021/04/08 10:25:13;;;;;;;4.13;1.10;;;;;;;10.12;33.40;100233.84;2036278;79;20196;-75
2021/04/08 10:28:15;;;;;;;3.04;1.09;;;;;;;10.07;32.72;100233.81;2037104;79;20193;-75
2021/04/08 10:31:22;;;;;;;3.83;1.31;;;;;;;10.10;32.95;100226.06;2038326;76;20184;-75
2021/04/08 10:34:33;;;;;;;5.84;1.33;;;;;;;10.20;33.59;100227.88;2041779;79;20352;-75
2021/04/08 10:37:35;;;;;;;4.95;1.40;;;;;;;10.02;32.26;100217.31;2041971;79;20419;-75
2021/04/08 10:40:38;;;;;;;2.42;1.35;;;;;;;9.82;33.00;100213.63;2041608;79;21181;-75
2021/04/08 10:43:39;;;;;;;4.90;1.17;;;;;;;9.68;33.56;100216.91;2042051;79;20666;-74
2021/04/08 10:46:44;;;;;;;2.34;1.14;;;;;;;9.71;32.65;100213.50;2037313;79;25803;-74
2021/04/08 10:49:47;;;;;;;2.76;1.27;;;;;;;9.71;32.89;100197.94;2034640;79;20173;-74
2021/04/08 10:52:49;;;;;;;3.51;1.51;;;;;;;9.64;33.34;100198.69;2036269;79;20200;-74
2021/04/08 10:55:53;;;;;;;2.61;1.23;;;;;;;9.95;33.16;100206.00;2036876;79;20181;-74
2021/04/08 10:59:14;;;;;;;6.36;1.50;;;;;;;10.19;33.12;100202.78;2036330;79;20181;-74
2021/04/08 11:02:26;;;;;;;4.81;1.49;;;;;;;10.14;32.42;100191.50;2036383;77;25584;-74
2021/04/08 11:05:27;;;;;;;3.46;1.58;;;;;;;9.98;32.32;100194.78;2035852;79;20221;-74
2021/04/08 11:08:29;;;;;;;2.71;1.61;;;;;;;9.99;34.03;100207.75;2036700;79;20694;-74
2021/04/08 11:11:31;;;;;;;2.99;1.45;;;;;;;9.96;33.45;100197.34;2036776;79;20212;-74
2021/04/08 11:14:34;;;;;;;5.13;1.94;;;;;;;10.21;34.07;100192.44;2037575;79;20209;-74
2021/04/08 11:17:41;;;;;;;1.79;1.09;;;;;;;10.68;32.26;100195.47;2041772;77;21982;-74
2021/04/08 11:20:45;;;;;;;4.39;1.45;;;;;;;10.78;32.19;100184.31;2043317;79;21250;-75
2021/04/08 11:23:49;;;;;;;3.19;1.11;;;;;;;10.71;31.41;100184.25;2042544;79;20179;-75
2021/04/08 11:26:52;;;;;;;5.53;1.73;;;;;;;10.77;33.22;100179.09;2042405;79;20176;-75
2021/04/08 11:29:55;;;;;;;2.69;1.67;;;;;;;10.86;32.70;100166.19;2041959;79;20173;-75
2021/04/08 11:32:58;;;;;;;3.26;1.70;;;;;;;10.76;31.71;100172.16;2036298;77;20215;-74
2021/04/08 11:36:00;;;;;;;1.65;1.34;;;;;;;10.59;32.99;100167.72;2041736;79;20161;-75
2021/04/08 11:39:09;;;;;;;4.64;1.58;;;;;;;10.34;32.79;100172.69;2041822;79;20206;-75
2021/04/08 11:42:22;;;;;;;3.28;1.14;;;;;;;10.01;32.81;100163.66;2040675;79;20184;-74
2021/04/08 11:45:26;;;;;;;5.21;1.17;;;;;;;9.99;33.88;100163.66;2039569;76;20809;-75
2021/04/08 11:48:42;;;;;;;4.24;1.60;;;;;;;10.29;33.93;100165.72;2042128;79;20187;-74
2021/04/08 11:51:44;;;;;;;2.72;1.17;;;;;;;10.67;33.31;100169.50;2041819;79;20188;-74
2021/04/08 11:55:04;;;;;;;3.26;1.69;;;;;;;10.83;32.45;100155.75;2041395;79;20168;-75
2021/04/08 11:58:08;;;;;;;2.70;1.45;;;;;;;10.86;32.16;100156.66;2043914;79;20210;-75
2021/04/08 12:01:20;;;;;;;3.78;1.67;;;;;;;10.99;32.29;100156.75;2039593;77;21632;-75
2021/04/08 12:04:25;;;;;;;2.55;1.40;;;;;;;10.85;31.79;100152.31;2040767;79;20221;-75
2021/04/08 12:07:28;;;;;;;3.67;1.45;;;;;;;10.74;32.25;100155.69;2041010;79;20189;-75
2021/04/08 12:10:32;;;;;;;6.39;2.17;;;;;;;10.65;32.43;100155.63;2040497;79;20173;-75
2021/04/08 12:13:34;;;;;;;4.54;1.86;;;;;;;10.38;32.35;100159.72;2040639;79;20211;-75
2021/04/08 12:16:36;;;;;;;5.20;1.61;;;;;;;10.07;33.18;100150.78;2039841;77;21489;-74
2021/04/08 12:19:38;;;;;;;3.85;1.39;;;;;;;10.07;33.73;100144.72;2040252;79;20860;-74
2021/04/08 12:22:40;;;;;;;4.21;1.60;;;;;;;10.02;34.82;100157.63;2040140;79;20585;-75
2021/04/08 12:25:42;;;;;;;2.74;1.71;;;;;;;10.02;33.82;100143.78;2040346;79;20248;-75
2021/04/08 12:28:43;;;;;;;4.60;1.67;;;;;;;10.03;34.88;100141.19;2039762;79;20219;-75
2021/04/08 12:31:47;;;;;;;3.41;1.38;;;;;;;10.08;33.89;100142.13;2039539;76;21190;-74
2021/04/08 12:34:48;;;;;;;1.64;1.31;;;;;;;10.18;33.74;100138.75;2040108;79;20218;-75
2021/04/08 12:37:50;;;;;;;4.07;1.52;;;;;;;10.57;33.07;100127.00;2039846;79;20370;-75
2021/04/08 12:40:55;;;;;;;1.90;1.38;;;;;;;10.96;33.19;100123.81;2040324;79;20790;-74
2021/04/08 12:43:57;;;;;;;1.90;1.30;;;;;;;11.01;33.76;100118.63;2043485;79;20245;-74
2021/04/08 12:46:58;;;;;;;3.91;1.70;;;;;;;10.90;32.04;100113.38;2039511;76;21804;-75
2021/04/08 12:50:00;;;;;;;5.61;1.99;;;;;;;10.90;32.26;100119.44;2039906;79;20229;-76
2021/04/08 12:53:02;;;;;;;2.20;1.29;;;;;;;10.92;32.47;100126.34;2040738;79;20188;-74
2021/04/08 12:56:04;;;;;;;2.95;1.70;;;;;;;10.85;34.14;100118.53;2040653;79;20180;-75
2021/04/08 12:59:06;;;;;;;2.29;1.60;;;;;;;10.90;32.78;100113.38;2040646;79;20184;-75
2021/04/08 13:02:07;;;;;;;2.15;1.34;;;;;;;10.78;33.65;100106.38;2042464;76;22977;-75
2021/04/08 13:05:09;;;;;;;2.28;1.20;;;;;;;10.70;33.03;100100.25;2040524;79;20429;-73
2021/04/08 13:08:12;;;;;;;2.20;1.17;;;;;;;10.54;32.81;100104.47;2041213;79;20173;-73
2021/04/08 13:11:13;;;;;;;3.11;1.35;;;;;;;10.44;34.10;100102.69;2040342;79;20218;-73
2021/04/08 13:14:35;;;;;;;4.07;1.99;;;;;;;10.45;33.35;100106.16;2042293;79;20320;-74
2021/04/08 13:17:41;;;;;;;5.65;1.81;;;;;;;10.34;33.89;100095.66;2040892;77;20645;-74
2021/04/08 13:20:44;;;;;;;2.76;1.17;;;;;;;10.35;34.75;100096.53;2041443;79;20222;-74
2021/04/08 13:23:45;;;;;;;1.99;1.52;;;;;;;10.40;34.99;100089.66;2039523;79;20195;-74
2021/04/08 13:26:47;;;;;;;4.05;1.35;;;;;;;10.65;35.78;100090.72;2039317;79;20184;-74
2021/04/08 13:29:50;;;;;;;3.63;1.85;;;;;;;11.20;34.88;100082.34;2039797;79;20219;-74
2021/04/08 13:32:52;;;;;;;2.33;1.10;;;;;;;11.49;32.62;100074.66;2039032;76;20808;-73
2021/04/08 13:35:54;;;;;;;1.69;0.99;;;;;;;11.43;33.02;100064.22;2039535;79;20204;-73
2021/04/08 13:38:55;;;;;;;2.85;1.54;;;;;;;11.42;33.16;100056.41;2040535;79;20247;-72
2021/04/08 13:41:57;;;;;;;3.89;1.40;;;;;;;11.36;33.09;100059.00;2039486;79;20268;-72
2021/04/08 13:44:59;;;;;;;2.17;1.26;;;;;;;11.53;33.31;100052.13;2039307;79;20202;-74
2021/04/08 13:48:01;;;;;;;2.33;1.35;;;;;;;11.63;33.32;100050.38;2037237;76;20462;-72
2021/04/08 13:51:03;;;;;;;3.30;1.60;;;;;;;11.50;31.55;100047.78;2034294;79;20215;-72
2021/04/08 13:54:09;;;;;;;2.40;1.85;;;;;;;11.51;32.49;100051.25;2035933;79;20309;-72
2021/04/08 13:57:10;;;;;;;3.95;1.20;;;;;;;11.34;32.86;100040.81;2034032;79;20250;-72
2021/04/08 14:00:18;;;;;;;4.49;1.40;;;;;;;11.55;33.44;100037.38;2034254;79;20193;-72
2021/04/08 14:03:23;;;;;;;2.84;1.36;;;;;;;11.76;33.47;100036.53;2035686;79;20193;-71
2021/04/08 14:06:25;;;;;;;2.30;1.25;;;;;;;11.96;32.11;100034.84;2034923;79;20197;-71
2021/04/08 14:09:27;;;;;;;6.04;1.61;;;;;;;12.20;31.84;100023.56;2035396;79;20206;-72
2021/04/08 14:12:29;;;;;;;2.24;1.38;;;;;;;12.34;33.27;100014.00;2034752;79;21607;-72
2021/04/08 14:15:30;;;;;;;2.91;1.39;;;;;;;12.51;32.43;100010.50;2034743;77;22214;-72
2021/04/08 14:18:33;;;;;;;2.13;1.14;;;;;;;12.79;31.40;100011.28;2040595;79;20901;-72
2021/04/08 14:21:39;;;;;;;2.10;1.20;;;;;;;12.93;31.29;100010.38;2040268;79;20293;-72
2021/04/08 14:24:41;;;;;;;2.34;1.13;;;;;;;13.01;30.65;99997.28;2039760;79;20189;-72